sensor_id;sensor_type;location;lat;lon;timestamp;noise_LAeq;noise_LA_min;noise_LA_max;noise_LA01;noise_LA95
77361;Laerm;66427;51.798;10.954;2023-03-15T00:01:55;34.48;30.14;43.65;;
77361;Laerm;66427;51.798;10.954;2023-03-15T00:04:21;34.40;30.40;47.33;;
77361;Laerm;66427;51.798;10.954;2023-03-15T00:06:49;34.47;30.40;41.20;;
77361;Laerm;66427;51.798;10.954;2023-03-15T00:09:15;35.21;31.39;41.35;;
77361;Laerm;66427;51.798;10.954;2023-03-15T00:11:40;33.07;30.47;40.56;;
77361;Laerm;66427;51.798;10.954;2023-03-15T00:14:06;34.39;30.58;40.23;;
77361;Laerm;66427;51.798;10.954;2023-03-15T00:16:32;31.68;29.45;37.48;;
77361;Laerm;66427;51.798;10.954;2023-03-15T00:18:58;32.66;29.29;43.18;;
77361;Laerm;66427;51.798;10.954;2023-03-15T00:21:24;31.78;28.96;42.58;;
77361;Laerm;66427;51.798;10.954;2023-03-15T00:23:49;32.23;29.94;38.26;;
77361;Laerm;66427;51.798;10.954;2023-03-15T00:26:15;47.35;29.59;63.46;;
77361;Laerm;66427;51.798;10.954;2023-03-15T00:28:41;48.20;29.17;64.13;;
77361;Laerm;66427;51.798;10.954;2023-03-15T00:31:10;32.84;29.43;40.33;;
77361;Laerm;66427;51.798;10.954;2023-03-15T00:33:37;33.57;29.77;40.37;;
77361;Laerm;66427;51.798;10.954;2023-03-15T00:36:03;32.11;29.59;40.30;;
77361;Laerm;66427;51.798;10.954;2023-03-15T00:38:30;33.29;29.26;39.49;;
77361;Laerm;66427;51.798;10.954;2023-03-15T00:40:56;33.66;29.21;47.50;;
77361;Laerm;66427;51.798;10.954;2023-03-15T00:43:21;30.72;28.91;42.44;;
77361;Laerm;66427;51.798;10.954;2023-03-15T00:45:47;33.10;30.03;38.11;;
77361;Laerm;66427;51.798;10.954;2023-03-15T00:48:13;33.62;29.79;46.73;;
77361;Laerm;66427;51.798;10.954;2023-03-15T00:50:39;36.26;29.70;43.16;;
77361;Laerm;66427;51.798;10.954;2023-03-15T00:53:04;35.94;30.05;47.80;;
77361;Laerm;66427;51.798;10.954;2023-03-15T00:55:30;34.44;30.10;43.77;;
77361;Laerm;66427;51.798;10.954;2023-03-15T00:57:56;36.77;30.40;44.95;;
77361;Laerm;66427;51.798;10.954;2023-03-15T01:00:22;31.18;29.45;34.68;;
77361;Laerm;66427;51.798;10.954;2023-03-15T01:02:49;33.82;29.90;40.76;;
77361;Laerm;66427;51.798;10.954;2023-03-15T01:05:15;32.14;28.91;39.07;;
77361;Laerm;66427;51.798;10.954;2023-03-15T01:07:41;34.42;29.38;42.16;;
77361;Laerm;66427;51.798;10.954;2023-03-15T01:10:10;36.37;31.04;46.67;;
77361;Laerm;66427;51.798;10.954;2023-03-15T01:12:36;32.76;29.56;42.92;;
77361;Laerm;66427;51.798;10.954;2023-03-15T01:15:02;33.40;29.82;38.89;;
77361;Laerm;66427;51.798;10.954;2023-03-15T01:17:28;35.55;30.37;44.00;;
77361;Laerm;66427;51.798;10.954;2023-03-15T01:19:54;34.48;29.39;46.74;;
77361;Laerm;66427;51.798;10.954;2023-03-15T01:22:20;35.74;29.43;43.57;;
77361;Laerm;66427;51.798;10.954;2023-03-15T01:24:46;35.61;29.72;47.48;;
77361;Laerm;66427;51.798;10.954;2023-03-15T01:27:12;35.79;29.11;47.78;;
77361;Laerm;66427;51.798;10.954;2023-03-15T01:29:40;31.64;29.02;41.81;;
77361;Laerm;66427;51.798;10.954;2023-03-15T01:32:06;33.82;30.10;48.28;;
77361;Laerm;66427;51.798;10.954;2023-03-15T01:34:32;31.94;29.49;40.98;;
77361;Laerm;66427;51.798;10.954;2023-03-15T01:36:58;35.73;28.77;47.82;;
77361;Laerm;66427;51.798;10.954;2023-03-15T01:39:24;32.88;29.72;37.19;;
77361;Laerm;66427;51.798;10.954;2023-03-15T01:41:50;33.07;29.64;37.30;;
77361;Laerm;66427;51.798;10.954;2023-03-15T01:44:16;33.75;30.02;40.05;;
77361;Laerm;66427;51.798;10.954;2023-03-15T01:46:42;31.03;28.66;39.17;;
77361;Laerm;66427;51.798;10.954;2023-03-15T01:49:10;32.20;29.35;41.93;;
77361;Laerm;66427;51.798;10.954;2023-03-15T01:54:12;31.59;28.89;37.88;;
77361;Laerm;66427;51.798;10.954;2023-03-15T01:56:40;31.51;29.22;39.94;;
77361;Laerm;66427;51.798;10.954;2023-03-15T01:59:10;30.67;28.98;36.06;;
77361;Laerm;66427;51.798;10.954;2023-03-15T02:01:39;34.11;29.41;43.71;;
77361;Laerm;66427;51.798;10.954;2023-03-15T02:04:10;33.77;29.91;39.95;;
77361;Laerm;66427;51.798;10.954;2023-03-15T02:06:37;35.05;29.15;42.60;;
77361;Laerm;66427;51.798;10.954;2023-03-15T02:09:04;31.76;28.99;37.57;;
77361;Laerm;66427;51.798;10.954;2023-03-15T02:11:30;33.29;29.33;39.58;;
77361;Laerm;66427;51.798;10.954;2023-03-15T02:13:56;30.73;28.70;36.78;;
77361;Laerm;66427;51.798;10.954;2023-03-15T02:16:22;31.68;28.97;42.93;;
77361;Laerm;66427;51.798;10.954;2023-03-15T02:18:49;31.75;28.52;39.04;;
77361;Laerm;66427;51.798;10.954;2023-03-15T02:21:27;30.78;28.66;38.40;;
77361;Laerm;66427;51.798;10.954;2023-03-15T02:24:00;34.40;28.25;48.65;;
77361;Laerm;66427;51.798;10.954;2023-03-15T02:26:33;33.41;29.00;45.77;;
77361;Laerm;66427;51.798;10.954;2023-03-15T02:29:03;30.17;28.08;37.34;;
77361;Laerm;66427;51.798;10.954;2023-03-15T02:31:30;32.50;28.86;39.17;;
77361;Laerm;66427;51.798;10.954;2023-03-15T02:33:58;42.20;28.64;57.13;;
77361;Laerm;66427;51.798;10.954;2023-03-15T02:36:25;29.80;28.13;43.88;;
77361;Laerm;66427;51.798;10.954;2023-03-15T02:38:51;33.56;28.72;39.74;;
77361;Laerm;66427;51.798;10.954;2023-03-15T02:41:19;33.79;29.19;45.79;;
77361;Laerm;66427;51.798;10.954;2023-03-15T02:43:46;32.62;30.11;40.77;;
77361;Laerm;66427;51.798;10.954;2023-03-15T02:46:14;34.92;30.42;40.97;;
77361;Laerm;66427;51.798;10.954;2023-03-15T02:48:40;39.43;32.25;47.26;;
77361;Laerm;66427;51.798;10.954;2023-03-15T02:51:07;37.37;30.29;45.72;;
77361;Laerm;66427;51.798;10.954;2023-03-15T02:53:40;37.16;30.46;49.84;;
77361;Laerm;66427;51.798;10.954;2023-03-15T02:56:06;35.49;30.77;43.04;;
77361;Laerm;66427;51.798;10.954;2023-03-15T02:58:32;33.55;29.45;44.66;;
77361;Laerm;66427;51.798;10.954;2023-03-15T03:00:58;34.11;30.72;43.18;;
77361;Laerm;66427;51.798;10.954;2023-03-15T03:03:24;36.25;32.42;44.80;;
77361;Laerm;66427;51.798;10.954;2023-03-15T03:05:50;36.39;31.15;46.85;;
77361;Laerm;66427;51.798;10.954;2023-03-15T03:08:16;35.76;30.80;45.07;;
77361;Laerm;66427;51.798;10.954;2023-03-15T03:10:42;34.31;29.49;43.79;;
77361;Laerm;66427;51.798;10.954;2023-03-15T03:13:07;32.04;29.84;37.64;;
77361;Laerm;66427;51.798;10.954;2023-03-15T03:15:33;34.54;31.01;44.48;;
77361;Laerm;66427;51.798;10.954;2023-03-15T03:17:59;33.08;29.61;39.79;;
77361;Laerm;66427;51.798;10.954;2023-03-15T03:20:25;35.42;30.58;43.60;;
77361;Laerm;66427;51.798;10.954;2023-03-15T03:22:51;36.91;30.90;43.48;;
77361;Laerm;66427;51.798;10.954;2023-03-15T03:25:20;33.74;31.02;40.46;;
77361;Laerm;66427;51.798;10.954;2023-03-15T03:27:46;34.98;30.34;46.38;;
77361;Laerm;66427;51.798;10.954;2023-03-15T03:30:12;36.43;30.70;45.23;;
77361;Laerm;66427;51.798;10.954;2023-03-15T03:32:39;36.07;32.46;42.78;;
77361;Laerm;66427;51.798;10.954;2023-03-15T03:35:04;35.22;30.95;45.19;;
77361;Laerm;66427;51.798;10.954;2023-03-15T03:37:30;33.23;30.12;40.16;;
77361;Laerm;66427;51.798;10.954;2023-03-15T03:39:56;35.50;30.19;51.76;;
77361;Laerm;66427;51.798;10.954;2023-03-15T03:42:22;37.56;32.86;45.80;;
77361;Laerm;66427;51.798;10.954;2023-03-15T03:44:48;36.74;32.14;47.01;;
77361;Laerm;66427;51.798;10.954;2023-03-15T03:47:14;37.30;33.29;44.97;;
77361;Laerm;66427;51.798;10.954;2023-03-15T03:49:40;37.06;33.13;45.69;;
77361;Laerm;66427;51.798;10.954;2023-03-15T03:52:06;39.14;33.03;45.83;;
77361;Laerm;66427;51.798;10.954;2023-03-15T03:54:32;37.14;32.24;54.47;;
77361;Laerm;66427;51.798;10.954;2023-03-15T03:56:57;37.17;33.08;43.90;;
77361;Laerm;66427;51.798;10.954;2023-03-15T03:59:23;41.32;33.96;49.25;;
77361;Laerm;66427;51.798;10.954;2023-03-15T04:01:49;39.54;34.39;45.44;;
77361;Laerm;66427;51.798;10.954;2023-03-15T04:04:15;37.88;32.78;46.86;;
77361;Laerm;66427;51.798;10.954;2023-03-15T04:06:41;39.20;33.50;47.31;;
77361;Laerm;66427;51.798;10.954;2023-03-15T04:09:11;40.72;35.52;46.38;;
77361;Laerm;66427;51.798;10.954;2023-03-15T04:11:37;37.85;33.95;43.20;;
77361;Laerm;66427;51.798;10.954;2023-03-15T04:14:03;40.85;35.68;49.72;;
77361;Laerm;66427;51.798;10.954;2023-03-15T04:16:29;42.24;36.66;51.94;;
77361;Laerm;66427;51.798;10.954;2023-03-15T04:18:55;55.12;37.66;71.19;;
77361;Laerm;66427;51.798;10.954;2023-03-15T04:21:20;42.56;37.80;55.96;;
77361;Laerm;66427;51.798;10.954;2023-03-15T04:23:47;52.73;36.69;67.15;;
77361;Laerm;66427;51.798;10.954;2023-03-15T04:26:13;51.75;39.37;65.48;;
77361;Laerm;66427;51.798;10.954;2023-03-15T04:28:39;48.09;37.60;64.30;;
77361;Laerm;66427;51.798;10.954;2023-03-15T04:31:06;55.01;38.83;72.28;;
77361;Laerm;66427;51.798;10.954;2023-03-15T04:33:34;44.38;39.98;54.16;;
77361;Laerm;66427;51.798;10.954;2023-03-15T04:36:00;48.04;37.40;63.34;;
77361;Laerm;66427;51.798;10.954;2023-03-15T04:38:27;42.06;38.09;50.49;;
77361;Laerm;66427;51.798;10.954;2023-03-15T04:40:53;43.50;39.68;50.54;;
77361;Laerm;66427;51.798;10.954;2023-03-15T04:43:19;44.93;40.32;51.21;;
77361;Laerm;66427;51.798;10.954;2023-03-15T04:45:45;47.33;38.50;59.69;;
77361;Laerm;66427;51.798;10.954;2023-03-15T04:48:11;54.11;38.77;66.48;;
77361;Laerm;66427;51.798;10.954;2023-03-15T04:50:37;55.64;38.18;73.17;;
77361;Laerm;66427;51.798;10.954;2023-03-15T04:53:03;52.91;37.56;68.80;;
77361;Laerm;66427;51.798;10.954;2023-03-15T04:55:28;48.17;36.07;63.35;;
77361;Laerm;66427;51.798;10.954;2023-03-15T04:57:54;52.31;37.95;64.22;;
77361;Laerm;66427;51.798;10.954;2023-03-15T05:00:20;48.64;36.83;60.18;;
77361;Laerm;66427;51.798;10.954;2023-03-15T05:02:47;51.66;37.39;64.70;;
77361;Laerm;66427;51.798;10.954;2023-03-15T05:05:19;55.12;35.92;69.00;;
77361;Laerm;66427;51.798;10.954;2023-03-15T05:07:45;42.37;35.35;56.44;;
77361;Laerm;66427;51.798;10.954;2023-03-15T05:10:11;42.06;34.96;56.60;;
77361;Laerm;66427;51.798;10.954;2023-03-15T05:12:37;47.45;35.15;60.57;;
77361;Laerm;66427;51.798;10.954;2023-03-15T05:15:03;48.50;37.25;63.94;;
77361;Laerm;66427;51.798;10.954;2023-03-15T05:17:29;39.31;35.88;44.10;;
77361;Laerm;66427;51.798;10.954;2023-03-15T05:19:54;40.12;35.08;48.24;;
77361;Laerm;66427;51.798;10.954;2023-03-15T05:22:20;49.14;35.44;64.65;;
77361;Laerm;66427;51.798;10.954;2023-03-15T05:24:50;52.02;37.04;66.83;;
77361;Laerm;66427;51.798;10.954;2023-03-15T05:27:17;55.30;36.75;67.82;;
77361;Laerm;66427;51.798;10.954;2023-03-15T05:29:44;54.14;36.92;68.45;;
77361;Laerm;66427;51.798;10.954;2023-03-15T05:32:09;49.63;36.03;65.09;;
77361;Laerm;66427;51.798;10.954;2023-03-15T05:34:35;58.04;38.31;75.06;;
77361;Laerm;66427;51.798;10.954;2023-03-15T05:37:01;52.88;36.41;66.44;;
77361;Laerm;66427;51.798;10.954;2023-03-15T05:39:27;49.10;38.65;61.31;;
77361;Laerm;66427;51.798;10.954;2023-03-15T05:41:53;58.63;39.52;70.45;;
77361;Laerm;66427;51.798;10.954;2023-03-15T05:44:19;49.89;39.20;62.24;;
77361;Laerm;66427;51.798;10.954;2023-03-15T05:46:47;50.45;39.20;64.05;;
77361;Laerm;66427;51.798;10.954;2023-03-15T05:49:13;56.09;38.66;69.80;;
77361;Laerm;66427;51.798;10.954;2023-03-15T05:51:39;51.11;38.40;64.75;;
77361;Laerm;66427;51.798;10.954;2023-03-15T05:54:04;51.34;38.56;67.00;;
77361;Laerm;66427;51.798;10.954;2023-03-15T05:56:30;58.88;39.22;69.78;;
77361;Laerm;66427;51.798;10.954;2023-03-15T05:58:56;56.72;39.94;69.62;;
77361;Laerm;66427;51.798;10.954;2023-03-15T06:01:25;56.69;38.19;67.93;;
77361;Laerm;66427;51.798;10.954;2023-03-15T06:03:51;52.32;39.37;65.70;;
77361;Laerm;66427;51.798;10.954;2023-03-15T06:06:16;54.22;37.91;69.22;;
77361;Laerm;66427;51.798;10.954;2023-03-15T06:08:42;56.65;38.60;68.63;;
77361;Laerm;66427;51.798;10.954;2023-03-15T06:11:08;56.79;39.09;68.64;;
77361;Laerm;66427;51.798;10.954;2023-03-15T06:13:33;50.95;37.97;63.08;;
77361;Laerm;66427;51.798;10.954;2023-03-15T06:15:59;49.38;38.30;64.08;;
77361;Laerm;66427;51.798;10.954;2023-03-15T06:18:25;53.33;37.35;65.36;;
77361;Laerm;66427;51.798;10.954;2023-03-15T06:20:51;61.63;38.75;79.37;;
77361;Laerm;66427;51.798;10.954;2023-03-15T06:23:17;56.66;38.59;71.07;;
77361;Laerm;66427;51.798;10.954;2023-03-15T06:25:42;60.57;40.49;70.74;;
77361;Laerm;66427;51.798;10.954;2023-03-15T06:28:09;59.39;41.23;69.47;;
77361;Laerm;66427;51.798;10.954;2023-03-15T06:30:35;59.36;39.69;71.69;;
77361;Laerm;66427;51.798;10.954;2023-03-15T06:33:01;58.08;40.01;68.97;;
77361;Laerm;66427;51.798;10.954;2023-03-15T06:35:27;61.37;41.42;75.62;;
77361;Laerm;66427;51.798;10.954;2023-03-15T06:37:53;61.59;40.44;78.76;;
77361;Laerm;66427;51.798;10.954;2023-03-15T06:40:18;58.02;41.65;69.11;;
77361;Laerm;66427;51.798;10.954;2023-03-15T06:42:45;49.98;38.27;65.62;;
77361;Laerm;66427;51.798;10.954;2023-03-15T06:45:11;54.82;40.51;70.48;;
77361;Laerm;66427;51.798;10.954;2023-03-15T06:47:37;55.81;40.33;70.25;;
77361;Laerm;66427;51.798;10.954;2023-03-15T06:50:03;52.36;39.93;64.32;;
77361;Laerm;66427;51.798;10.954;2023-03-15T06:52:29;55.91;41.20;71.24;;
77361;Laerm;66427;51.798;10.954;2023-03-15T06:54:54;53.43;39.72;68.92;;
77361;Laerm;66427;51.798;10.954;2023-03-15T06:57:20;54.30;40.47;65.97;;
77361;Laerm;66427;51.798;10.954;2023-03-15T06:59:46;55.61;39.95;68.70;;
77361;Laerm;66427;51.798;10.954;2023-03-15T07:02:13;55.12;37.96;67.07;;
77361;Laerm;66427;51.798;10.954;2023-03-15T07:04:39;55.19;39.00;68.57;;
77361;Laerm;66427;51.798;10.954;2023-03-15T07:07:05;56.69;39.11;72.32;;
77361;Laerm;66427;51.798;10.954;2023-03-15T07:09:30;54.99;38.48;67.68;;
77361;Laerm;66427;51.798;10.954;2023-03-15T07:11:56;55.40;37.30;70.52;;
77361;Laerm;66427;51.798;10.954;2023-03-15T07:14:22;52.85;38.90;67.28;;
77361;Laerm;66427;51.798;10.954;2023-03-15T07:16:47;53.33;38.20;68.01;;
77361;Laerm;66427;51.798;10.954;2023-03-15T07:19:13;50.55;37.38;64.75;;
77361;Laerm;66427;51.798;10.954;2023-03-15T07:21:39;56.19;37.89;66.09;;
77361;Laerm;66427;51.798;10.954;2023-03-15T07:24:05;52.83;36.02;68.08;;
77361;Laerm;66427;51.798;10.954;2023-03-15T07:26:31;54.68;36.99;67.69;;
77361;Laerm;66427;51.798;10.954;2023-03-15T07:28:57;53.04;35.40;67.09;;
77361;Laerm;66427;51.798;10.954;2023-03-15T07:31:22;40.41;35.72;50.24;;
77361;Laerm;66427;51.798;10.954;2023-03-15T07:33:48;60.12;38.17;76.07;;
77361;Laerm;66427;51.798;10.954;2023-03-15T07:36:14;56.80;37.48;69.31;;
77361;Laerm;66427;51.798;10.954;2023-03-15T07:38:40;57.93;35.76;73.44;;
77361;Laerm;66427;51.798;10.954;2023-03-15T07:41:06;56.25;35.51;70.28;;
77361;Laerm;66427;51.798;10.954;2023-03-15T07:43:32;40.41;37.39;48.03;;
77361;Laerm;66427;51.798;10.954;2023-03-15T07:45:58;51.93;38.13;63.64;;
77361;Laerm;66427;51.798;10.954;2023-03-15T07:48:25;60.40;37.94;78.40;;
77361;Laerm;66427;51.798;10.954;2023-03-15T07:50:53;54.75;38.92;63.73;;
77361;Laerm;66427;51.798;10.954;2023-03-15T07:53:18;58.54;44.18;70.93;;
77361;Laerm;66427;51.798;10.954;2023-03-15T07:55:45;56.95;39.28;72.20;;
77361;Laerm;66427;51.798;10.954;2023-03-15T07:58:12;54.30;39.05;68.79;;
77361;Laerm;66427;51.798;10.954;2023-03-15T08:00:37;50.75;39.26;63.33;;
77361;Laerm;66427;51.798;10.954;2023-03-15T08:03:03;63.54;40.95;69.31;;
77361;Laerm;66427;51.798;10.954;2023-03-15T08:05:31;66.07;53.08;70.01;;
77361;Laerm;66427;51.798;10.954;2023-03-15T08:07:57;66.17;41.70;78.41;;
77361;Laerm;66427;51.798;10.954;2023-03-15T08:10:22;52.65;39.61;65.12;;
77361;Laerm;66427;51.798;10.954;2023-03-15T08:12:48;53.52;40.00;65.96;;
77361;Laerm;66427;51.798;10.954;2023-03-15T08:15:15;65.15;40.74;80.67;;
77361;Laerm;66427;51.798;10.954;2023-03-15T08:17:40;57.03;40.43;68.22;;
77361;Laerm;66427;51.798;10.954;2023-03-15T08:20:09;61.91;39.82;75.86;;
77361;Laerm;66427;51.798;10.954;2023-03-15T08:22:39;62.80;41.29;80.39;;
77361;Laerm;66427;51.798;10.954;2023-03-15T08:25:09;53.58;39.55;66.07;;
77361;Laerm;66427;51.798;10.954;2023-03-15T08:27:36;57.43;36.70;71.67;;
77361;Laerm;66427;51.798;10.954;2023-03-15T08:30:02;50.76;37.33;62.29;;
77361;Laerm;66427;51.798;10.954;2023-03-15T08:32:30;54.48;37.39;68.76;;
77361;Laerm;66427;51.798;10.954;2023-03-15T08:34:56;56.27;38.46;71.14;;
77361;Laerm;66427;51.798;10.954;2023-03-15T08:37:22;55.67;39.31;68.88;;
77361;Laerm;66427;51.798;10.954;2023-03-15T08:39:48;53.67;36.86;67.74;;
77361;Laerm;66427;51.798;10.954;2023-03-15T08:42:21;54.70;37.61;68.05;;
77361;Laerm;66427;51.798;10.954;2023-03-15T08:44:47;56.13;38.95;70.65;;
77361;Laerm;66427;51.798;10.954;2023-03-15T08:47:13;53.15;37.21;64.27;;
77361;Laerm;66427;51.798;10.954;2023-03-15T08:49:39;55.21;36.96;66.93;;
77361;Laerm;66427;51.798;10.954;2023-03-15T08:52:05;56.88;36.58;70.37;;
77361;Laerm;66427;51.798;10.954;2023-03-15T08:54:31;54.44;36.25;68.73;;
77361;Laerm;66427;51.798;10.954;2023-03-15T08:56:57;56.91;39.81;68.01;;
77361;Laerm;66427;51.798;10.954;2023-03-15T08:59:23;55.76;35.18;68.33;;
77361;Laerm;66427;51.798;10.954;2023-03-15T09:01:48;53.35;36.07;65.53;;
77361;Laerm;66427;51.798;10.954;2023-03-15T09:04:14;57.37;38.06;69.46;;
77361;Laerm;66427;51.798;10.954;2023-03-15T09:06:40;53.99;38.19;64.27;;
77361;Laerm;66427;51.798;10.954;2023-03-15T09:09:06;51.82;36.00;65.97;;
77361;Laerm;66427;51.798;10.954;2023-03-15T09:11:32;60.85;37.13;75.28;;
77361;Laerm;66427;51.798;10.954;2023-03-15T09:13:57;58.40;38.17;73.54;;
77361;Laerm;66427;51.798;10.954;2023-03-15T09:16:23;57.90;38.84;69.85;;
77361;Laerm;66427;51.798;10.954;2023-03-15T09:18:49;57.06;40.83;66.61;;
77361;Laerm;66427;51.798;10.954;2023-03-15T09:21:15;53.46;38.78;66.18;;
77361;Laerm;66427;51.798;10.954;2023-03-15T09:23:41;55.00;42.03;69.30;;
77361;Laerm;66427;51.798;10.954;2023-03-15T09:26:07;54.26;40.72;65.08;;
77361;Laerm;66427;51.798;10.954;2023-03-15T09:28:32;56.14;40.17;67.41;;
77361;Laerm;66427;51.798;10.954;2023-03-15T09:30:59;53.60;38.43;69.27;;
77361;Laerm;66427;51.798;10.954;2023-03-15T09:33:27;66.65;43.86;82.76;;
77361;Laerm;66427;51.798;10.954;2023-03-15T09:35:53;54.56;42.19;64.93;;
77361;Laerm;66427;51.798;10.954;2023-03-15T09:38:19;61.43;45.30;76.86;;
77361;Laerm;66427;51.798;10.954;2023-03-15T09:40:46;55.42;40.40;67.86;;
77361;Laerm;66427;51.798;10.954;2023-03-15T09:43:21;53.87;41.12;65.25;;
77361;Laerm;66427;51.798;10.954;2023-03-15T09:46:03;60.09;40.17;76.09;;
77361;Laerm;66427;51.798;10.954;2023-03-15T09:48:34;53.35;40.96;64.43;;
77361;Laerm;66427;51.798;10.954;2023-03-15T09:53:57;56.05;37.65;68.30;;
77361;Laerm;66427;51.798;10.954;2023-03-15T09:56:32;54.59;40.50;66.74;;
77361;Laerm;66427;51.798;10.954;2023-03-15T09:59:00;56.74;39.87;69.46;;
77361;Laerm;66427;51.798;10.954;2023-03-15T10:01:45;52.70;39.50;66.11;;
77361;Laerm;66427;51.798;10.954;2023-03-15T10:04:23;55.47;40.54;68.24;;
77361;Laerm;66427;51.798;10.954;2023-03-15T10:06:52;63.85;41.06;80.61;;
77361;Laerm;66427;51.798;10.954;2023-03-15T10:09:20;56.49;42.40;69.02;;
77361;Laerm;66427;51.798;10.954;2023-03-15T10:12:00;54.81;39.53;66.64;;
77361;Laerm;66427;51.798;10.954;2023-03-15T10:14:48;55.84;38.40;66.83;;
77361;Laerm;66427;51.798;10.954;2023-03-15T10:20:11;56.10;37.51;70.71;;
77361;Laerm;66427;51.798;10.954;2023-03-15T10:22:50;55.96;38.90;69.47;;
77361;Laerm;66427;51.798;10.954;2023-03-15T10:25:24;56.37;39.15;70.27;;
77361;Laerm;66427;51.798;10.954;2023-03-15T10:30:29;55.35;40.52;67.87;;
77361;Laerm;66427;51.798;10.954;2023-03-15T10:35:39;54.71;40.01;69.25;;
77361;Laerm;66427;51.798;10.954;2023-03-15T10:38:16;57.75;40.80;69.69;;
77361;Laerm;66427;51.798;10.954;2023-03-15T10:45:46;56.60;40.47;69.70;;
77361;Laerm;66427;51.798;10.954;2023-03-15T10:48:13;54.41;40.09;65.92;;
77361;Laerm;66427;51.798;10.954;2023-03-15T10:50:39;56.09;38.75;69.53;;
77361;Laerm;66427;51.798;10.954;2023-03-15T10:53:08;57.47;39.92;69.63;;
77361;Laerm;66427;51.798;10.954;2023-03-15T10:55:36;65.81;45.59;80.50;;
77361;Laerm;66427;51.798;10.954;2023-03-15T11:00:47;64.32;38.53;85.62;;
77361;Laerm;66427;51.798;10.954;2023-03-15T11:03:20;57.83;40.50;68.99;;
77361;Laerm;66427;51.798;10.954;2023-03-15T11:05:52;60.06;38.27;78.75;;
77361;Laerm;66427;51.798;10.954;2023-03-15T11:08:22;58.27;39.27;71.10;;
77361;Laerm;66427;51.798;10.954;2023-03-15T11:10:55;56.79;39.74;74.30;;
77361;Laerm;66427;51.798;10.954;2023-03-15T11:13:26;55.30;40.81;68.71;;
77361;Laerm;66427;51.798;10.954;2023-03-15T11:18:30;48.59;40.27;62.72;;
77361;Laerm;66427;51.798;10.954;2023-03-15T11:20:59;53.34;35.97;68.18;;
77361;Laerm;66427;51.798;10.954;2023-03-15T11:23:27;49.74;38.61;64.86;;
77361;Laerm;66427;51.798;10.954;2023-03-15T11:25:53;56.48;39.72;68.79;;
77361;Laerm;66427;51.798;10.954;2023-03-15T11:28:27;55.91;37.29;68.33;;
77361;Laerm;66427;51.798;10.954;2023-03-15T11:30:56;51.57;36.48;68.43;;
77361;Laerm;66427;51.798;10.954;2023-03-15T11:33:31;56.30;38.26;68.53;;
77361;Laerm;66427;51.798;10.954;2023-03-15T11:36:02;54.40;39.69;67.81;;
77361;Laerm;66427;51.798;10.954;2023-03-15T11:38:34;49.18;38.52;61.69;;
77361;Laerm;66427;51.798;10.954;2023-03-15T11:41:09;52.58;39.72;65.82;;
77361;Laerm;66427;51.798;10.954;2023-03-15T11:43:58;54.04;38.15;66.58;;
77361;Laerm;66427;51.798;10.954;2023-03-15T11:46:29;55.78;38.30;69.69;;
77361;Laerm;66427;51.798;10.954;2023-03-15T11:49:05;55.29;38.09;66.77;;
77361;Laerm;66427;51.798;10.954;2023-03-15T11:51:36;52.24;36.79;63.91;;
77361;Laerm;66427;51.798;10.954;2023-03-15T11:59:10;55.84;37.43;66.75;;
77361;Laerm;66427;51.798;10.954;2023-03-15T12:01:47;55.85;37.35;71.88;;
77361;Laerm;66427;51.798;10.954;2023-03-15T12:06:52;53.38;37.29;68.21;;
77361;Laerm;66427;51.798;10.954;2023-03-15T12:11:58;56.10;36.54;73.66;;
77361;Laerm;66427;51.798;10.954;2023-03-15T12:14:26;55.48;37.29;68.65;;
77361;Laerm;66427;51.798;10.954;2023-03-15T12:19:38;53.31;37.62;65.71;;
77361;Laerm;66427;51.798;10.954;2023-03-15T12:22:04;52.88;38.85;65.17;;
77361;Laerm;66427;51.798;10.954;2023-03-15T12:24:38;56.29;40.26;68.12;;
77361;Laerm;66427;51.798;10.954;2023-03-15T12:27:05;55.64;41.83;68.78;;
77361;Laerm;66427;51.798;10.954;2023-03-15T12:29:39;56.14;44.51;72.53;;
77361;Laerm;66427;51.798;10.954;2023-03-15T12:32:10;55.41;43.00;77.63;;
77361;Laerm;66427;51.798;10.954;2023-03-15T12:37:17;52.65;40.08;66.60;;
77361;Laerm;66427;51.798;10.954;2023-03-15T12:39:57;60.87;40.80;76.84;;
77361;Laerm;66427;51.798;10.954;2023-03-15T12:47:45;55.24;38.64;67.92;;
77361;Laerm;66427;51.798;10.954;2023-03-15T12:52:57;53.19;37.51;67.72;;
77361;Laerm;66427;51.798;10.954;2023-03-15T12:55:28;56.03;38.39;68.19;;
77361;Laerm;66427;51.798;10.954;2023-03-15T12:57:56;53.24;38.90;65.63;;
77361;Laerm;66427;51.798;10.954;2023-03-15T13:00:27;52.26;39.21;65.26;;
77361;Laerm;66427;51.798;10.954;2023-03-15T13:10:35;56.85;36.50;71.49;;
77361;Laerm;66427;51.798;10.954;2023-03-15T13:13:07;51.61;36.33;66.40;;
77361;Laerm;66427;51.798;10.954;2023-03-15T13:15:43;50.36;35.59;64.68;;
77361;Laerm;66427;51.798;10.954;2023-03-15T13:18:15;50.39;35.53;66.33;;
77361;Laerm;66427;51.798;10.954;2023-03-15T13:20:46;53.10;36.86;64.66;;
77361;Laerm;66427;51.798;10.954;2023-03-15T13:25:43;54.65;38.93;69.20;;
77361;Laerm;66427;51.798;10.954;2023-03-15T13:30:50;57.89;37.16;67.52;;
77361;Laerm;66427;51.798;10.954;2023-03-15T13:33:29;55.61;37.08;70.18;;
77361;Laerm;66427;51.798;10.954;2023-03-15T13:40:55;53.86;38.41;67.64;;
77361;Laerm;66427;51.798;10.954;2023-03-15T13:43:25;52.34;38.58;64.82;;
77361;Laerm;66427;51.798;10.954;2023-03-15T13:45:51;57.15;39.03;74.18;;
77361;Laerm;66427;51.798;10.954;2023-03-15T13:48:18;53.40;38.28;66.77;;
77361;Laerm;66427;51.798;10.954;2023-03-15T13:50:47;58.49;41.67;68.59;;
77361;Laerm;66427;51.798;10.954;2023-03-15T13:53:17;54.04;41.32;64.99;;
77361;Laerm;66427;51.798;10.954;2023-03-15T13:55:50;54.68;37.68;68.33;;
77361;Laerm;66427;51.798;10.954;2023-03-15T13:58:16;51.08;39.75;64.25;;
77361;Laerm;66427;51.798;10.954;2023-03-15T14:00:43;55.38;41.61;69.83;;
77361;Laerm;66427;51.798;10.954;2023-03-15T14:03:12;55.99;40.83;67.65;;
77361;Laerm;66427;51.798;10.954;2023-03-15T14:05:45;58.77;40.58;71.73;;
77361;Laerm;66427;51.798;10.954;2023-03-15T14:11:06;58.38;39.59;69.60;;
77361;Laerm;66427;51.798;10.954;2023-03-15T14:13:35;54.55;39.99;67.65;;
77361;Laerm;66427;51.798;10.954;2023-03-15T14:16:14;53.62;40.13;66.41;;
77361;Laerm;66427;51.798;10.954;2023-03-15T14:18:41;56.35;42.81;66.88;;
77361;Laerm;66427;51.798;10.954;2023-03-15T14:21:11;60.84;48.66;74.82;;
77361;Laerm;66427;51.798;10.954;2023-03-15T14:23:39;60.52;46.47;73.60;;
77361;Laerm;66427;51.798;10.954;2023-03-15T14:26:10;59.17;43.76;67.87;;
77361;Laerm;66427;51.798;10.954;2023-03-15T14:28:37;58.63;42.49;75.66;;
77361;Laerm;66427;51.798;10.954;2023-03-15T14:31:03;55.46;42.44;67.94;;
77361;Laerm;66427;51.798;10.954;2023-03-15T14:35:57;57.61;43.70;68.21;;
77361;Laerm;66427;51.798;10.954;2023-03-15T14:38:24;50.42;41.64;64.00;;
77361;Laerm;66427;51.798;10.954;2023-03-15T14:40:50;56.99;50.49;67.03;;
77361;Laerm;66427;51.798;10.954;2023-03-15T14:43:17;58.11;52.34;68.43;;
77361;Laerm;66427;51.798;10.954;2023-03-15T14:45:44;57.45;38.60;69.71;;